Cherry Point MCAS /Cunningham Field/
KNKT : now visible

Airfield :











YOU CAN JOIN US ON...

 
LOGIN :

Register | Disclaimer

   EN    FR    IT 

 









Legend :    VFR   Marginal VFR   IFR   Intensive IFR   Very Intensive IFR
Visi :
Ceiling :
>= 8 km
>= 3000ft
5 to 8 km
1000 to 3000 ft
1500m to 5 km
500 to 1000 ft
800 to 1500m
200 to 500 ft
< 800m
< 200 ft
Symbols :   Thunderstorms  Fog  Heavy snow  Heavy precipitations  Wind > 20 kt






- Airport Elevation : 29 ft


KNKT - Cherry Point MCAS /Cunningham Field/

CURRENT METAR :
  • 280354Z 14008KT 10SM BKN019 BKN031 BKN043 25/22 A3009 RMK AO2 RAB0258E07 SLP187 P0000 T02500222

EXPIRED METARs :
  • 280254Z 13008KT 10SM SCT014 OVC020 24/22 A3008 RMK AO2 RAB17E27 SLP184 P0001 60009 T02440222 51006
  • 280200Z 13008KT 10SM FEW008 BKN025 BKN032 24/22 A3009 RMK AO2 T02440222

TAF AMD TAF KNKT
Valid from the 28 at 03:00 until the 29 at 03:00 UTC


2803/2903 14008KT 9000 VCSH BR SCT008 BKN015 QNH3000INS
FM280700 15008KT 4800 SHRA BR BKN007 OVC015 QNH3004INS
TEMPO 2812/2814 15012KT 4800 VCTS BR BKN020 OVC030CB
BECMG 2814/2816 17012G23KT 8000 -SHRA BR VCTS BKN020 OVC030CB QNH3007INS
FM282000 17014G25KT 9999 FEW008 OVC020 QNH3005INS T21/2811Z T28/2818Z AMD 0303
KZDC FIR / North America



MET'MAP, your aeronautical weather chart ! - Copyright ORBIFLY December 2007 - Disclaimer

ORBIFLY MET'MAP TEAM :

Programming & Development : Alexandra Zaïnal
Concept & original design : Baudouin d'Aumeries
Assistance for programming : Marc-Olivier Méhu
Technical & hardware support : Manuel Goepfert

Contact : metmap@orbifly.com




SOURCES & CREDITS :

   NOAA       Earth
Advisory